sensor_id;sensor_type;location;lat;lon;timestamp;P1;P2;P0
71794;PMS7003;59641;45.188;5.712;2023-05-23T00:00:45;9.25;9.25;6.75
71794;PMS7003;59641;45.188;5.712;2023-05-23T00:03:11;8.80;8.80;7.40
71794;PMS7003;59641;45.188;5.712;2023-05-23T00:05:37;8.00;8.00;6.00
71794;PMS7003;59641;45.188;5.712;2023-05-23T00:08:02;7.75;7.00;5.00
71794;PMS7003;59641;45.188;5.712;2023-05-23T00:10:28;6.25;6.25;5.50
71794;PMS7003;59641;45.188;5.712;2023-05-23T00:12:53;9.75;9.00;6.75
71794;PMS7003;59641;45.188;5.712;2023-05-23T00:15:19;8.75;8.00;7.00
71794;PMS7003;59641;45.188;5.712;2023-05-23T00:17:44;7.00;7.00;5.25
71794;PMS7003;59641;45.188;5.712;2023-05-23T00:20:11;9.20;9.20;7.00
71794;PMS7003;59641;45.188;5.712;2023-05-23T00:22:37;7.75;7.75;6.50
71794;PMS7003;59641;45.188;5.712;2023-05-23T00:25:08;8.80;7.00;5.60
71794;PMS7003;59641;45.188;5.712;2023-05-23T00:27:34;10.00;7.75;6.00
71794;PMS7003;59641;45.188;5.712;2023-05-23T00:30:00;7.60;7.60;6.00
71794;PMS7003;59641;45.188;5.712;2023-05-23T00:32:26;8.00;6.50;5.00
71794;PMS7003;59641;45.188;5.712;2023-05-23T00:34:52;8.25;8.25;5.25
71794;PMS7003;59641;45.188;5.712;2023-05-23T00:37:18;8.40;8.40;7.00
71794;PMS7003;59641;45.188;5.712;2023-05-23T00:39:44;8.60;8.60;7.60
71794;PMS7003;59641;45.188;5.712;2023-05-23T00:42:10;3.25;3.25;3.25
71794;PMS7003;59641;45.188;5.712;2023-05-23T00:44:35;7.50;7.50;5.00
71794;PMS7003;59641;45.188;5.712;2023-05-23T00:47:00;8.75;8.25;6.00
71794;PMS7003;59641;45.188;5.712;2023-05-23T00:49:26;10.20;9.00;5.80
71794;PMS7003;59641;45.188;5.712;2023-05-23T00:51:52;7.25;7.25;6.00
71794;PMS7003;59641;45.188;5.712;2023-05-23T00:54:19;7.50;7.25;5.50
71794;PMS7003;59641;45.188;5.712;2023-05-23T00:56:48;8.00;7.20;5.60
71794;PMS7003;59641;45.188;5.712;2023-05-23T00:59:14;7.50;7.50;7.00
71794;PMS7003;59641;45.188;5.712;2023-05-23T01:01:40;7.50;7.50;6.00
71794;PMS7003;59641;45.188;5.712;2023-05-23T01:04:10;7.20;7.20;6.40
71794;PMS7003;59641;45.188;5.712;2023-05-23T01:06:37;9.20;9.00;6.60
71794;PMS7003;59641;45.188;5.712;2023-05-23T01:09:02;10.00;10.00;6.00
71794;PMS7003;59641;45.188;5.712;2023-05-23T01:11:37;10.75;10.25;6.00
71794;PMS7003;59641;45.188;5.712;2023-05-23T01:15:27;7.00;7.00;6.00
71794;PMS7003;59641;45.188;5.712;2023-05-23T01:17:25;7.60;7.60;6.00
71794;PMS7003;59641;45.188;5.712;2023-05-23T01:28:11;7.40;7.40;6.00
71794;PMS7003;59641;45.188;5.712;2023-05-23T01:30:41;8.20;8.20;7.00
71794;PMS7003;59641;45.188;5.712;2023-05-23T01:33:09;10.00;9.00;7.40
71794;PMS7003;59641;45.188;5.712;2023-05-23T01:35:40;8.40;7.00;6.00
71794;PMS7003;59641;45.188;5.712;2023-05-23T01:38:07;6.60;6.00;6.00
71794;PMS7003;59641;45.188;5.712;2023-05-23T01:40:33;10.75;10.50;6.25
71794;PMS7003;59641;45.188;5.712;2023-05-23T01:42:58;9.25;7.25;6.00
71794;PMS7003;59641;45.188;5.712;2023-05-23T01:45:25;9.75;8.75;6.75
71794;PMS7003;59641;45.188;5.712;2023-05-23T01:47:51;8.40;7.80;6.00
71794;PMS7003;59641;45.188;5.712;2023-05-23T01:50:18;9.20;9.20;6.80
71794;PMS7003;59641;45.188;5.712;2023-05-23T01:52:45;8.40;8.40;6.80
71794;PMS7003;59641;45.188;5.712;2023-05-23T01:55:11;10.25;9.75;6.50
71794;PMS7003;59641;45.188;5.712;2023-05-23T01:57:40;9.40;9.40;6.60
71794;PMS7003;59641;45.188;5.712;2023-05-23T02:00:06;4.40;4.40;4.00
71794;PMS7003;59641;45.188;5.712;2023-05-23T02:02:34;7.00;7.00;5.60
71794;PMS7003;59641;45.188;5.712;2023-05-23T02:05:00;11.00;9.75;6.50
71794;PMS7003;59641;45.188;5.712;2023-05-23T02:07:26;9.00;9.00;5.50
71794;PMS7003;59641;45.188;5.712;2023-05-23T02:09:51;8.00;8.00;6.50
71794;PMS7003;59641;45.188;5.712;2023-05-23T02:12:16;11.25;8.50;7.25
71794;PMS7003;59641;45.188;5.712;2023-05-23T02:14:42;11.00;9.00;6.75
71794;PMS7003;59641;45.188;5.712;2023-05-23T02:17:07;8.00;8.00;6.00
71794;PMS7003;59641;45.188;5.712;2023-05-23T02:19:36;8.00;7.80;6.00
71794;PMS7003;59641;45.188;5.712;2023-05-23T02:22:02;9.75;8.50;6.00
71794;PMS7003;59641;45.188;5.712;2023-05-23T02:24:27;8.50;8.50;6.25
71794;PMS7003;59641;45.188;5.712;2023-05-23T02:26:53;8.00;8.00;6.25
71794;PMS7003;59641;45.188;5.712;2023-05-23T02:29:18;9.50;9.50;7.25
71794;PMS7003;59641;45.188;5.712;2023-05-23T02:31:44;8.50;8.50;6.75
71794;PMS7003;59641;45.188;5.712;2023-05-23T02:34:09;8.50;8.50;6.25
71794;PMS7003;59641;45.188;5.712;2023-05-23T02:36:35;9.75;9.75;6.75
71794;PMS7003;59641;45.188;5.712;2023-05-23T02:39:01;8.00;8.00;5.75
71794;PMS7003;59641;45.188;5.712;2023-05-23T02:41:27;8.20;7.80;7.00
71794;PMS7003;59641;45.188;5.712;2023-05-23T02:43:53;11.00;10.75;7.75
71794;PMS7003;59641;45.188;5.712;2023-05-23T02:46:18;8.00;7.25;7.00
71794;PMS7003;59641;45.188;5.712;2023-05-23T02:48:44;7.00;6.00;5.00
71794;PMS7003;59641;45.188;5.712;2023-05-23T02:51:09;10.50;10.00;7.25
71794;PMS7003;59641;45.188;5.712;2023-05-23T02:53:35;9.00;9.00;7.00
71794;PMS7003;59641;45.188;5.712;2023-05-23T02:56:00;9.00;9.00;7.25
71794;PMS7003;59641;45.188;5.712;2023-05-23T02:58:25;8.50;8.50;6.75
71794;PMS7003;59641;45.188;5.712;2023-05-23T03:00:51;8.00;8.00;6.25
71794;PMS7003;59641;45.188;5.712;2023-05-23T03:03:16;7.50;6.25;5.25
71794;PMS7003;59641;45.188;5.712;2023-05-23T03:05:42;9.75;9.75;7.25
71794;PMS7003;59641;45.188;5.712;2023-05-23T03:08:07;7.50;7.50;6.00
71794;PMS7003;59641;45.188;5.712;2023-05-23T03:10:33;6.50;6.50;6.00
71794;PMS7003;59641;45.188;5.712;2023-05-23T03:12:58;10.00;8.25;6.50
71794;PMS7003;59641;45.188;5.712;2023-05-23T03:15:23;9.25;8.75;8.00
71794;PMS7003;59641;45.188;5.712;2023-05-23T03:17:49;9.25;9.00;7.00
71794;PMS7003;59641;45.188;5.712;2023-05-23T03:20:14;10.00;9.00;7.25
71794;PMS7003;59641;45.188;5.712;2023-05-23T03:22:40;8.75;8.75;6.25
71794;PMS7003;59641;45.188;5.712;2023-05-23T03:25:07;10.20;10.20;7.00
71794;PMS7003;59641;45.188;5.712;2023-05-23T03:27:33;9.75;9.50;7.25
71794;PMS7003;59641;45.188;5.712;2023-05-23T03:29:58;11.50;11.25;8.75
71794;PMS7003;59641;45.188;5.712;2023-05-23T03:32:24;6.75;6.75;5.50
71794;PMS7003;59641;45.188;5.712;2023-05-23T03:34:49;9.50;9.50;7.25
71794;PMS7003;59641;45.188;5.712;2023-05-23T03:37:14;10.50;9.25;7.50
71794;PMS7003;59641;45.188;5.712;2023-05-23T03:39:40;8.50;8.50;7.00
71794;PMS7003;59641;45.188;5.712;2023-05-23T03:42:05;9.00;8.50;7.00
71794;PMS7003;59641;45.188;5.712;2023-05-23T03:44:31;10.25;10.25;7.25
71794;PMS7003;59641;45.188;5.712;2023-05-23T03:46:56;9.50;9.50;8.00
71794;PMS7003;59641;45.188;5.712;2023-05-23T03:49:22;8.50;7.75;6.00
71794;PMS7003;59641;45.188;5.712;2023-05-23T03:51:47;9.25;9.25;7.25
71794;PMS7003;59641;45.188;5.712;2023-05-23T03:54:13;5.75;5.50;4.00
71794;PMS7003;59641;45.188;5.712;2023-05-23T03:56:38;8.75;8.00;6.75
71794;PMS7003;59641;45.188;5.712;2023-05-23T03:59:03;10.50;8.25;6.50
71794;PMS7003;59641;45.188;5.712;2023-05-23T04:01:29;10.00;9.75;6.75
71794;PMS7003;59641;45.188;5.712;2023-05-23T04:03:54;8.50;8.50;7.00
71794;PMS7003;59641;45.188;5.712;2023-05-23T04:06:19;9.00;9.00;6.75
71794;PMS7003;59641;45.188;5.712;2023-05-23T04:08:46;9.20;9.00;6.40
71794;PMS7003;59641;45.188;5.712;2023-05-23T04:11:12;11.75;8.25;6.25
71794;PMS7003;59641;45.188;5.712;2023-05-23T04:13:37;8.25;8.25;6.00
71794;PMS7003;59641;45.188;5.712;2023-05-23T04:16:03;8.00;8.00;6.00
71794;PMS7003;59641;45.188;5.712;2023-05-23T04:18:30;10.75;10.75;7.75
71794;PMS7003;59641;45.188;5.712;2023-05-23T04:20:57;10.00;10.00;7.75
71794;PMS7003;59641;45.188;5.712;2023-05-23T04:23:23;9.80;9.00;7.00
71794;PMS7003;59641;45.188;5.712;2023-05-23T04:25:49;8.00;7.50;6.00
71794;PMS7003;59641;45.188;5.712;2023-05-23T04:28:15;8.25;8.25;7.00
71794;PMS7003;59641;45.188;5.712;2023-05-23T04:30:41;8.20;8.20;6.80
71794;PMS7003;59641;45.188;5.712;2023-05-23T04:33:07;8.25;8.25;6.00
71794;PMS7003;59641;45.188;5.712;2023-05-23T04:35:34;9.00;9.00;7.40
71794;PMS7003;59641;45.188;5.712;2023-05-23T04:38:02;11.80;9.80;6.80
71794;PMS7003;59641;45.188;5.712;2023-05-23T04:40:28;9.00;9.00;7.00
71794;PMS7003;59641;45.188;5.712;2023-05-23T04:42:54;10.50;8.75;6.25
71794;PMS7003;59641;45.188;5.712;2023-05-23T04:45:20;8.20;7.20;5.80
71794;PMS7003;59641;45.188;5.712;2023-05-23T04:47:46;9.00;9.00;7.00
71794;PMS7003;59641;45.188;5.712;2023-05-23T04:50:11;8.50;8.00;6.50
71794;PMS7003;59641;45.188;5.712;2023-05-23T04:52:38;6.20;6.20;5.60
71794;PMS7003;59641;45.188;5.712;2023-05-23T04:55:05;10.40;10.40;7.60
71794;PMS7003;59641;45.188;5.712;2023-05-23T04:57:30;6.00;6.00;5.25
71794;PMS7003;59641;45.188;5.712;2023-05-23T04:59:56;2.50;2.50;1.00
71794;PMS7003;59641;45.188;5.712;2023-05-23T05:02:21;7.00;7.00;6.00
71794;PMS7003;59641;45.188;5.712;2023-05-23T05:04:47;11.25;11.25;6.00
71794;PMS7003;59641;45.188;5.712;2023-05-23T05:07:12;6.25;6.25;5.00
71794;PMS7003;59641;45.188;5.712;2023-05-23T05:09:38;8.00;7.25;5.25
71794;PMS7003;59641;45.188;5.712;2023-05-23T05:12:03;9.25;9.25;6.00
71794;PMS7003;59641;45.188;5.712;2023-05-23T05:14:29;11.00;11.00;8.00
71794;PMS7003;59641;45.188;5.712;2023-05-23T05:16:54;7.75;7.75;7.00
71794;PMS7003;59641;45.188;5.712;2023-05-23T05:19:21;10.25;9.25;8.00
71794;PMS7003;59641;45.188;5.712;2023-05-23T05:21:49;9.60;9.60;7.00
71794;PMS7003;59641;45.188;5.712;2023-05-23T05:24:15;10.25;9.00;7.00
71794;PMS7003;59641;45.188;5.712;2023-05-23T05:26:40;9.00;8.25;5.75
71794;PMS7003;59641;45.188;5.712;2023-05-23T05:29:06;9.00;9.00;7.50
71794;PMS7003;59641;45.188;5.712;2023-05-23T05:31:32;9.00;8.00;6.25
71794;PMS7003;59641;45.188;5.712;2023-05-23T05:33:57;6.00;6.00;5.00
71794;PMS7003;59641;45.188;5.712;2023-05-23T05:36:23;9.50;9.50;8.00
71794;PMS7003;59641;45.188;5.712;2023-05-23T05:38:48;9.25;9.25;7.00
71794;PMS7003;59641;45.188;5.712;2023-05-23T05:41:13;7.25;7.25;5.50
71794;PMS7003;59641;45.188;5.712;2023-05-23T05:43:39;8.50;8.50;6.00
71794;PMS7003;59641;45.188;5.712;2023-05-23T05:46:04;7.00;7.00;6.00
71794;PMS7003;59641;45.188;5.712;2023-05-23T05:48:30;9.25;9.25;7.50
71794;PMS7003;59641;45.188;5.712;2023-05-23T05:50:55;6.50;6.00;5.00
71794;PMS7003;59641;45.188;5.712;2023-05-23T05:53:21;6.00;6.00;4.00
71794;PMS7003;59641;45.188;5.712;2023-05-23T05:55:46;9.75;7.75;6.00
71794;PMS7003;59641;45.188;5.712;2023-05-23T05:58:11;6.50;6.50;5.50
71794;PMS7003;59641;45.188;5.712;2023-05-23T06:00:37;8.50;8.00;6.00
71794;PMS7003;59641;45.188;5.712;2023-05-23T06:03:09;8.40;8.40;7.00
71794;PMS7003;59641;45.188;5.712;2023-05-23T06:05:35;9.40;8.00;6.80
71794;PMS7003;59641;45.188;5.712;2023-05-23T06:08:01;8.20;8.20;7.00
71794;PMS7003;59641;45.188;5.712;2023-05-23T06:10:27;9.75;9.00;7.00
71794;PMS7003;59641;45.188;5.712;2023-05-23T06:12:52;9.00;9.00;6.25
71794;PMS7003;59641;45.188;5.712;2023-05-23T06:15:18;9.25;9.00;6.25
71794;PMS7003;59641;45.188;5.712;2023-05-23T06:17:43;7.00;6.50;5.25
71794;PMS7003;59641;45.188;5.712;2023-05-23T06:20:09;12.75;10.50;8.00
71794;PMS7003;59641;45.188;5.712;2023-05-23T06:22:35;8.80;7.00;5.00
71794;PMS7003;59641;45.188;5.712;2023-05-23T06:25:01;9.75;9.75;7.75
71794;PMS7003;59641;45.188;5.712;2023-05-23T06:27:26;6.25;6.25;5.75
71794;PMS7003;59641;45.188;5.712;2023-05-23T06:29:52;10.25;9.00;6.00
71794;PMS7003;59641;45.188;5.712;2023-05-23T06:32:17;11.25;10.00;7.00
71794;PMS7003;59641;45.188;5.712;2023-05-23T06:34:42;8.25;8.25;6.25
71794;PMS7003;59641;45.188;5.712;2023-05-23T06:37:08;12.25;11.00;8.00
71794;PMS7003;59641;45.188;5.712;2023-05-23T06:39:33;10.50;10.50;8.50
71794;PMS7003;59641;45.188;5.712;2023-05-23T06:41:59;11.00;10.00;9.00
71794;PMS7003;59641;45.188;5.712;2023-05-23T06:44:25;12.00;11.60;8.40
71794;PMS7003;59641;45.188;5.712;2023-05-23T06:46:50;9.00;9.00;7.75
71794;PMS7003;59641;45.188;5.712;2023-05-23T06:49:21;8.60;8.60;7.00
71794;PMS7003;59641;45.188;5.712;2023-05-23T06:51:47;10.00;9.75;8.25
71794;PMS7003;59641;45.188;5.712;2023-05-23T06:54:12;10.00;8.25;6.00
71794;PMS7003;59641;45.188;5.712;2023-05-23T06:56:37;13.75;10.25;8.00
71794;PMS7003;59641;45.188;5.712;2023-05-23T06:59:03;11.00;10.75;8.75
71794;PMS7003;59641;45.188;5.712;2023-05-23T07:01:28;10.50;10.25;7.75
71794;PMS7003;59641;45.188;5.712;2023-05-23T07:03:53;9.75;9.25;7.00
71794;PMS7003;59641;45.188;5.712;2023-05-23T07:06:19;11.50;11.50;9.25
71794;PMS7003;59641;45.188;5.712;2023-05-23T07:08:45;10.75;10.75;8.00
71794;PMS7003;59641;45.188;5.712;2023-05-23T07:11:10;11.00;10.25;7.75
71794;PMS7003;59641;45.188;5.712;2023-05-23T07:13:36;11.50;11.50;8.00
71794;PMS7003;59641;45.188;5.712;2023-05-23T07:16:01;12.25;10.25;7.75
71794;PMS7003;59641;45.188;5.712;2023-05-23T07:18:27;13.25;11.25;8.25
71794;PMS7003;59641;45.188;5.712;2023-05-23T07:20:52;12.00;12.00;9.00
71794;PMS7003;59641;45.188;5.712;2023-05-23T07:23:18;9.50;8.50;7.00
71794;PMS7003;59641;45.188;5.712;2023-05-23T07:25:43;9.00;9.00;7.00
71794;PMS7003;59641;45.188;5.712;2023-05-23T07:28:10;8.80;8.80;6.20
71794;PMS7003;59641;45.188;5.712;2023-05-23T07:30:36;10.25;9.50;7.25
71794;PMS7003;59641;45.188;5.712;2023-05-23T07:33:01;10.00;10.00;8.00
71794;PMS7003;59641;45.188;5.712;2023-05-23T07:35:27;10.50;9.75;7.00
71794;PMS7003;59641;45.188;5.712;2023-05-23T07:37:52;13.25;12.00;8.75
71794;PMS7003;59641;45.188;5.712;2023-05-23T07:40:18;13.25;12.00;8.25
71794;PMS7003;59641;45.188;5.712;2023-05-23T07:42:43;13.50;13.00;9.75
71794;PMS7003;59641;45.188;5.712;2023-05-23T07:45:09;10.25;9.75;6.50
71794;PMS7003;59641;45.188;5.712;2023-05-23T07:47:35;10.00;10.00;8.50
71794;PMS7003;59641;45.188;5.712;2023-05-23T07:50:00;11.00;8.75;7.75
71794;PMS7003;59641;45.188;5.712;2023-05-23T07:52:27;10.50;10.50;8.50
71794;PMS7003;59641;45.188;5.712;2023-05-23T07:54:54;12.80;12.40;8.00
71794;PMS7003;59641;45.188;5.712;2023-05-23T07:57:19;12.00;12.00;9.00
71794;PMS7003;59641;45.188;5.712;2023-05-23T07:59:44;10.25;10.25;7.75
71794;PMS7003;59641;45.188;5.712;2023-05-23T08:02:10;12.50;11.75;8.50
71794;PMS7003;59641;45.188;5.712;2023-05-23T08:04:35;10.50;10.50;7.75
71794;PMS7003;59641;45.188;5.712;2023-05-23T08:07:00;14.00;11.75;8.50
71794;PMS7003;59641;45.188;5.712;2023-05-23T08:09:26;10.75;10.75;8.75
71794;PMS7003;59641;45.188;5.712;2023-05-23T08:11:51;10.75;9.75;7.00
71794;PMS7003;59641;45.188;5.712;2023-05-23T08:14:17;14.75;12.75;10.25
71794;PMS7003;59641;45.188;5.712;2023-05-23T08:16:42;13.75;13.25;9.75
71794;PMS7003;59641;45.188;5.712;2023-05-23T08:19:07;13.25;11.50;9.00
71794;PMS7003;59641;45.188;5.712;2023-05-23T08:21:33;11.50;10.25;7.75
71794;PMS7003;59641;45.188;5.712;2023-05-23T08:24:00;13.00;13.00;9.00
71794;PMS7003;59641;45.188;5.712;2023-05-23T08:26:25;10.25;10.25;8.25
71794;PMS7003;59641;45.188;5.712;2023-05-23T08:28:54;10.00;10.00;7.40
71794;PMS7003;59641;45.188;5.712;2023-05-23T08:31:20;15.25;11.25;8.75
71794;PMS7003;59641;45.188;5.712;2023-05-23T08:33:47;10.00;9.40;8.00
71794;PMS7003;59641;45.188;5.712;2023-05-23T08:36:12;11.25;10.75;7.00
71794;PMS7003;59641;45.188;5.712;2023-05-23T08:38:37;11.75;10.00;7.75
71794;PMS7003;59641;45.188;5.712;2023-05-23T08:41:03;11.00;11.00;8.25
71794;PMS7003;59641;45.188;5.712;2023-05-23T08:43:37;14.20;12.60;9.20
71794;PMS7003;59641;45.188;5.712;2023-05-23T08:46:02;10.25;10.25;8.00
71794;PMS7003;59641;45.188;5.712;2023-05-23T08:48:28;10.25;10.25;7.00
71794;PMS7003;59641;45.188;5.712;2023-05-23T08:50:54;11.25;11.00;9.00
71794;PMS7003;59641;45.188;5.712;2023-05-23T08:53:19;10.25;10.25;8.75
71794;PMS7003;59641;45.188;5.712;2023-05-23T08:55:48;12.40;11.60;8.40
71794;PMS7003;59641;45.188;5.712;2023-05-23T08:58:15;11.00;9.80;7.60
71794;PMS7003;59641;45.188;5.712;2023-05-23T09:00:44;11.60;11.20;7.40
71794;PMS7003;59641;45.188;5.712;2023-05-23T09:03:10;9.20;9.20;8.00
71794;PMS7003;59641;45.188;5.712;2023-05-23T09:05:36;12.75;12.75;9.75
71794;PMS7003;59641;45.188;5.712;2023-05-23T09:08:02;13.25;10.75;8.00
71794;PMS7003;59641;45.188;5.712;2023-05-23T09:10:27;10.50;9.00;6.00
71794;PMS7003;59641;45.188;5.712;2023-05-23T09:12:54;13.20;12.20;8.00
71794;PMS7003;59641;45.188;5.712;2023-05-23T09:15:19;12.00;11.50;9.00
71794;PMS7003;59641;45.188;5.712;2023-05-23T09:17:46;14.80;13.40;9.80
71794;PMS7003;59641;45.188;5.712;2023-05-23T09:20:12;14.00;14.00;8.25
71794;PMS7003;59641;45.188;5.712;2023-05-23T09:22:39;14.00;13.75;10.00
71794;PMS7003;59641;45.188;5.712;2023-05-23T09:25:09;16.80;16.40;12.00
71794;PMS7003;59641;45.188;5.712;2023-05-23T09:27:35;15.00;14.00;10.75
71794;PMS7003;59641;45.188;5.712;2023-05-23T09:30:09;15.00;15.00;11.50
71794;PMS7003;59641;45.188;5.712;2023-05-23T09:32:36;16.75;16.25;11.50
71794;PMS7003;59641;45.188;5.712;2023-05-23T09:35:02;19.00;19.00;11.75
71794;PMS7003;59641;45.188;5.712;2023-05-23T09:37:36;14.20;14.00;8.60
71794;PMS7003;59641;45.188;5.712;2023-05-23T09:40:09;14.25;13.25;9.75
71794;PMS7003;59641;45.188;5.712;2023-05-23T09:42:45;19.50;16.75;13.00
71794;PMS7003;59641;45.188;5.712;2023-05-23T09:45:12;19.20;19.20;13.00
71794;PMS7003;59641;45.188;5.712;2023-05-23T09:47:38;24.25;22.50;17.00
71794;PMS7003;59641;45.188;5.712;2023-05-23T09:50:12;23.00;21.75;15.00
71794;PMS7003;59641;45.188;5.712;2023-05-23T09:52:38;25.25;22.25;15.25
71794;PMS7003;59641;45.188;5.712;2023-05-23T09:55:04;21.00;19.25;15.25
71794;PMS7003;59641;45.188;5.712;2023-05-23T09:57:30;21.75;21.25;16.00
71794;PMS7003;59641;45.188;5.712;2023-05-23T10:00:04;23.25;21.75;16.50
71794;PMS7003;59641;45.188;5.712;2023-05-23T10:03:16;22.25;22.25;17.50
71794;PMS7003;59641;45.188;5.712;2023-05-23T10:05:40;24.75;22.75;15.75
71794;PMS7003;59641;45.188;5.712;2023-05-23T10:08:56;22.00;21.25;15.00
71794;PMS7003;59641;45.188;5.712;2023-05-23T10:13:46;23.00;21.75;16.00
71794;PMS7003;59641;45.188;5.712;2023-05-23T10:19:06;25.25;23.50;17.25
71794;PMS7003;59641;45.188;5.712;2023-05-23T10:21:39;24.50;22.25;17.25
71794;PMS7003;59641;45.188;5.712;2023-05-23T10:24:09;19.50;18.25;13.50
71794;PMS7003;59641;45.188;5.712;2023-05-23T10:26:36;22.00;22.00;16.00
71794;PMS7003;59641;45.188;5.712;2023-05-23T10:29:01;22.25;22.00;15.00
71794;PMS7003;59641;45.188;5.712;2023-05-23T10:31:27;25.00;23.25;16.50
71794;PMS7003;59641;45.188;5.712;2023-05-23T10:33:55;21.00;20.50;16.00
71794;PMS7003;59641;45.188;5.712;2023-05-23T10:36:35;22.75;22.75;17.75
71794;PMS7003;59641;45.188;5.712;2023-05-23T10:39:15;23.50;23.50;16.50
71794;PMS7003;59641;45.188;5.712;2023-05-23T10:41:54;25.00;25.00;15.75
71794;PMS7003;59641;45.188;5.712;2023-05-23T10:44:28;25.00;21.75;15.50
71794;PMS7003;59641;45.188;5.712;2023-05-23T10:49:38;23.40;21.60;15.00
71794;PMS7003;59641;45.188;5.712;2023-05-23T10:52:05;23.25;23.25;16.00
71794;PMS7003;59641;45.188;5.712;2023-05-23T10:57:08;20.00;20.00;14.80
71794;PMS7003;59641;45.188;5.712;2023-05-23T10:59:37;21.40;19.80;14.00
71794;PMS7003;59641;45.188;5.712;2023-05-23T11:02:04;21.75;20.50;17.00
71794;PMS7003;59641;45.188;5.712;2023-05-23T11:04:41;22.00;21.50;16.00
71794;PMS7003;59641;45.188;5.712;2023-05-23T11:10:07;24.75;24.25;17.50
71794;PMS7003;59641;45.188;5.712;2023-05-23T11:12:39;24.50;23.50;17.25
71794;PMS7003;59641;45.188;5.712;2023-05-23T11:18:06;25.25;23.25;17.00
71794;PMS7003;59641;45.188;5.712;2023-05-23T11:20:32;23.00;23.00;17.00
71794;PMS7003;59641;45.188;5.712;2023-05-23T11:22:59;20.75;20.25;14.50
71794;PMS7003;59641;45.188;5.712;2023-05-23T11:25:46;22.50;22.50;17.25
71794;PMS7003;59641;45.188;5.712;2023-05-23T11:28:13;20.50;20.50;15.25
71794;PMS7003;59641;45.188;5.712;2023-05-23T11:30:39;26.75;26.00;18.25
71794;PMS7003;59641;45.188;5.712;2023-05-23T11:33:08;28.00;27.00;18.75
71794;PMS7003;59641;45.188;5.712;2023-05-23T11:35:37;26.25;25.25;17.75
71794;PMS7003;59641;45.188;5.712;2023-05-23T11:38:14;25.50;25.50;17.50
71794;PMS7003;59641;45.188;5.712;2023-05-23T11:40:44;31.25;28.25;18.75
71794;PMS7003;59641;45.188;5.712;2023-05-23T11:43:12;28.00;27.00;18.00
71794;PMS7003;59641;45.188;5.712;2023-05-23T11:45:38;26.75;26.50;18.00
71794;PMS7003;59641;45.188;5.712;2023-05-23T11:48:05;30.25;28.25;19.00
71794;PMS7003;59641;45.188;5.712;2023-05-23T11:53:11;28.00;27.00;18.00
71794;PMS7003;59641;45.188;5.712;2023-05-23T11:55:38;22.75;20.75;16.00
71794;PMS7003;59641;45.188;5.712;2023-05-23T11:58:05;29.75;27.25;18.00
71794;PMS7003;59641;45.188;5.712;2023-05-23T12:00:31;29.25;28.00;18.00
71794;PMS7003;59641;45.188;5.712;2023-05-23T12:02:56;26.75;25.75;18.00
71794;PMS7003;59641;45.188;5.712;2023-05-23T12:05:22;31.75;29.75;19.00
71794;PMS7003;59641;45.188;5.712;2023-05-23T12:07:47;26.25;26.00;18.75
71794;PMS7003;59641;45.188;5.712;2023-05-23T12:10:16;31.75;27.75;18.75
71794;PMS7003;59641;45.188;5.712;2023-05-23T12:12:45;32.00;28.75;19.75
71794;PMS7003;59641;45.188;5.712;2023-05-23T12:15:11;32.50;30.25;20.00
71794;PMS7003;59641;45.188;5.712;2023-05-23T12:17:37;33.25;29.75;20.00
71794;PMS7003;59641;45.188;5.712;2023-05-23T12:20:04;31.50;28.00;19.75
71794;PMS7003;59641;45.188;5.712;2023-05-23T12:22:30;27.25;27.00;19.00
71794;PMS7003;59641;45.188;5.712;2023-05-23T12:24:56;31.00;29.00;19.75
71794;PMS7003;59641;45.188;5.712;2023-05-23T12:27:28;30.75;28.00;18.25
71794;PMS7003;59641;45.188;5.712;2023-05-23T12:30:08;32.00;30.33;21.33
71794;PMS7003;59641;45.188;5.712;2023-05-23T12:32:43;32.75;30.25;21.00
71794;PMS7003;59641;45.188;5.712;2023-05-23T12:35:11;29.75;27.75;19.00
71794;PMS7003;59641;45.188;5.712;2023-05-23T12:37:42;34.00;31.00;22.00
71794;PMS7003;59641;45.188;5.712;2023-05-23T12:40:12;33.25;30.00;21.00
71794;PMS7003;59641;45.188;5.712;2023-05-23T12:42:43;33.25;30.50;20.00
71794;PMS7003;59641;45.188;5.712;2023-05-23T12:45:15;32.00;28.50;18.25
71794;PMS7003;59641;45.188;5.712;2023-05-23T12:47:40;28.50;28.00;19.25
71794;PMS7003;59641;45.188;5.712;2023-05-23T12:50:06;32.25;29.50;20.00
71794;PMS7003;59641;45.188;5.712;2023-05-23T12:52:32;27.50;27.50;18.50
71794;PMS7003;59641;45.188;5.712;2023-05-23T12:54:57;33.75;30.00;20.50
71794;PMS7003;59641;45.188;5.712;2023-05-23T12:57:22;33.50;29.25;20.25
71794;PMS7003;59641;45.188;5.712;2023-05-23T12:59:48;34.50;31.25;20.25
71794;PMS7003;59641;45.188;5.712;2023-05-23T13:02:13;30.00;27.75;20.25
71794;PMS7003;59641;45.188;5.712;2023-05-23T13:04:38;37.67;32.00;20.33
71794;PMS7003;59641;45.188;5.712;2023-05-23T13:07:04;36.00;30.25;19.00
71794;PMS7003;59641;45.188;5.712;2023-05-23T13:09:29;33.33;29.67;21.00
71794;PMS7003;59641;45.188;5.712;2023-05-23T13:11:54;36.25;31.25;20.75
71794;PMS7003;59641;45.188;5.712;2023-05-23T13:14:20;27.50;25.75;19.50
71794;PMS7003;59641;45.188;5.712;2023-05-23T13:16:45;32.67;29.67;19.67
71794;PMS7003;59641;45.188;5.712;2023-05-23T13:19:11;40.67;35.00;22.00
71794;PMS7003;59641;45.188;5.712;2023-05-23T13:21:36;35.25;31.25;20.00
71794;PMS7003;59641;45.188;5.712;2023-05-23T13:24:01;38.00;32.75;21.00
71794;PMS7003;59641;45.188;5.712;2023-05-23T13:26:27;31.25;29.75;20.00
71794;PMS7003;59641;45.188;5.712;2023-05-23T13:28:52;33.25;30.25;20.00
71794;PMS7003;59641;45.188;5.712;2023-05-23T13:31:18;33.00;30.33;22.00
71794;PMS7003;59641;45.188;5.712;2023-05-23T13:33:43;41.00;33.67;23.00
71794;PMS7003;59641;45.188;5.712;2023-05-23T13:36:09;36.00;31.33;21.33
71794;PMS7003;59641;45.188;5.712;2023-05-23T13:38:36;37.00;31.00;20.00
71794;PMS7003;59641;45.188;5.712;2023-05-23T13:41:01;30.00;26.25;18.00
71794;PMS7003;59641;45.188;5.712;2023-05-23T13:43:26;41.00;33.33;23.33
71794;PMS7003;59641;45.188;5.712;2023-05-23T13:45:52;34.00;29.67;21.67
71794;PMS7003;59641;45.188;5.712;2023-05-23T13:48:17;35.67;31.00;20.67
71794;PMS7003;59641;45.188;5.712;2023-05-23T13:50:43;36.50;32.00;20.75
71794;PMS7003;59641;45.188;5.712;2023-05-23T13:53:08;32.75;30.00;19.75
71794;PMS7003;59641;45.188;5.712;2023-05-23T13:55:39;35.00;30.50;20.00
71794;PMS7003;59641;45.188;5.712;2023-05-23T13:58:04;32.75;30.75;20.00
71794;PMS7003;59641;45.188;5.712;2023-05-23T14:00:30;37.00;31.00;20.67
71794;PMS7003;59641;45.188;5.712;2023-05-23T14:02:55;32.00;30.00;21.00
71794;PMS7003;59641;45.188;5.712;2023-05-23T14:05:20;31.25;29.25;19.75
71794;PMS7003;59641;45.188;5.712;2023-05-23T14:07:46;32.00;30.00;19.50
71794;PMS7003;59641;45.188;5.712;2023-05-23T14:10:12;33.25;30.00;19.50
71794;PMS7003;59641;45.188;5.712;2023-05-23T14:12:38;36.25;31.00;20.00
71794;PMS7003;59641;45.188;5.712;2023-05-23T14:15:03;32.75;28.50;18.25
71794;PMS7003;59641;45.188;5.712;2023-05-23T14:17:29;35.75;31.25;20.50
71794;PMS7003;59641;45.188;5.712;2023-05-23T14:19:54;30.75;28.00;19.75
71794;PMS7003;59641;45.188;5.712;2023-05-23T14:22:20;30.75;28.75;19.25
71794;PMS7003;59641;45.188;5.712;2023-05-23T14:24:45;32.75;28.50;18.50
71794;PMS7003;59641;45.188;5.712;2023-05-23T14:27:10;30.25;27.75;20.00
71794;PMS7003;59641;45.188;5.712;2023-05-23T14:29:36;23.00;23.00;17.25